New Ulm, MN

3:35 PM CST on December 15, 2019 (GMT -0600)
New Ulm Municipal

Weather History for KULM - October, 2019

Change the Weather History Date:

Monday, October 21, 2019

  Actual Average Record
Temperature  
Mean Temperature 48 °F -  
Max Temperature 55 °F 59 °F 82 °F (1978)
Min Temperature 41 °F 37 °F 3 °F (2000)
Degree Days  
Heating Degree Days 17    
Moisture  
Dew Point 43 °F    
Average Humidity 87    
Maximum Humidity 100    
Minimum Humidity 54    
Precipitation  
Precipitation 0.00 in - - ()
Sea Level Pressure  
Sea Level Pressure 29.31 in    
Wind  
Wind Speed 14 mph ()    
Max Wind Speed 34 mph    
Max Gust Speed 54 mph    
Visibility 9.4 miles    
Events Rain    
Averages and records for this station are not official NWS values.
T = Trace of Precipitation, MM = Missing Value Source: Averaged Metar Reports

Daily Weather History Graph

Daily Weather History Graph

Search for Another Location

Airport or City:

Astronomy

Oct. 21, 2019 Rise Set
Actual Time 7:40 AM CDT 6:24 PM CDT
Civil Twilight 7:10 AM CDT 6:53 PM CDT
Nautical Twilight 6:37 AM CDT 7:27 PM CDT
Astronomical Twilight 6:03 AM CDT 8:00 PM CDT
Moon No Moon Rise 3:06 PM CDT (10/21)
Length of Visible Light 11h 42m
Length of Day
10h 43m
Waning Gibbous, 48% of the Moon is Illuminated
Oct 21
Waning Gibbous
Oct 27
New
Nov 4
First Quarter
Nov 12
Full
Nov 19
Last Quarter

Hourly Weather History & Observations

Time (CDT) Temp. Windchill Dew Point Humidity Pressure Visibility Wind Dir Wind Speed Gust Speed Precip Events Conditions
12:15 AM 55.4 °F - 39.2 °F 54% 29.67 in 10.0 mi SE 19.6 mph 25.3 mph N/A   Overcast
12:16 AM 55.4 °F - 39.2 °F 54% 29.67 in 10.0 mi SE 18.4 mph 25.3 mph N/A   Overcast
12:55 AM 55.4 °F - 39.2 °F 54% 29.64 in 10.0 mi SE 15.0 mph 23.0 mph N/A Rain Light Rain
12:56 AM 53.6 °F - 39.2 °F 58% 29.64 in 10.0 mi SE 16.1 mph 23.0 mph N/A Rain Light Rain
1:15 AM 53.6 °F - 41.0 °F 62% 29.62 in 10.0 mi ESE 16.1 mph 24.2 mph N/A   Overcast
1:35 AM 53.6 °F - 42.8 °F 67% 29.62 in 10.0 mi ESE 13.8 mph 20.7 mph N/A   Overcast
1:36 AM 53.6 °F - 42.8 °F 67% 29.62 in 10.0 mi ESE 12.7 mph 20.7 mph N/A   Overcast
1:55 AM 53.6 °F - 42.8 °F 67% 29.58 in 10.0 mi East 15.0 mph 20.7 mph N/A   Mostly Cloudy
2:15 AM 53.6 °F - 42.8 °F 67% 29.57 in 10.0 mi East 12.7 mph 20.7 mph N/A   Scattered Clouds
2:35 AM 51.8 °F - 42.8 °F 71% 29.57 in 10.0 mi ESE 17.3 mph 20.7 mph N/A   Light Drizzle
2:55 AM 51.8 °F - 42.8 °F 71% 29.56 in 10.0 mi East 15.0 mph 18.4 mph N/A Rain Light Rain
2:56 AM 51.8 °F - 42.8 °F 71% 29.56 in 10.0 mi ESE 13.8 mph 18.4 mph N/A Rain Light Rain
3:15 AM 51.8 °F - 42.8 °F 71% 29.53 in 10.0 mi ESE 17.3 mph 23.0 mph N/A Rain Light Rain
3:16 AM 51.8 °F - 42.8 °F 71% 29.53 in 10.0 mi ESE 17.3 mph 23.0 mph N/A Rain Light Rain
3:35 AM 51.8 °F - 42.8 °F 71% 29.50 in 10.0 mi ESE 20.7 mph 28.8 mph N/A   Overcast
3:36 AM 51.8 °F - 42.8 °F 71% 29.50 in 10.0 mi ESE 19.6 mph 28.8 mph N/A   Overcast
3:55 AM 51.8 °F - 42.8 °F 71% 29.48 in 10.0 mi ESE 15.0 mph 27.6 mph N/A   Overcast
4:15 AM 51.8 °F - 42.8 °F 71% 29.48 in 10.0 mi ESE 18.4 mph 24.2 mph N/A   Overcast
4:16 AM 51.8 °F - 42.8 °F 71% 29.47 in 10.0 mi ESE 19.6 mph 25.3 mph N/A   Overcast
4:35 AM 51.8 °F - 44.6 °F 76% 29.46 in 10.0 mi ESE 13.8 mph 26.5 mph N/A   Overcast
4:55 AM 51.8 °F - 44.6 °F 76% 29.45 in 10.0 mi ESE 15.0 mph 19.6 mph N/A   Overcast
4:56 AM 51.8 °F - 44.6 °F 76% 29.45 in 10.0 mi ESE 17.3 mph - N/A   Overcast
5:15 AM 51.8 °F - 44.6 °F 76% 29.45 in 10.0 mi ESE 10.4 mph - N/A Rain Light Rain
5:16 AM 50.0 °F - 44.6 °F 82% 29.45 in 10.0 mi ESE 11.5 mph 20.7 mph N/A   Light Drizzle
5:35 AM 50.0 °F - 44.6 °F 82% 29.44 in 10.0 mi ESE 13.8 mph 19.6 mph N/A Rain Light Rain
5:55 AM 48.2 °F - 44.6 °F 87% 29.44 in 10.0 mi ESE 11.5 mph - N/A Rain Rain
6:15 AM 48.2 °F - 44.6 °F 87% 29.44 in 10.0 mi East 8.1 mph - N/A Rain Rain
6:16 AM 48.2 °F - 44.6 °F 87% 29.44 in 10.0 mi East 9.2 mph - N/A Rain Rain
6:35 AM 48.2 °F - 46.4 °F 93% 29.43 in 10.0 mi ENE 4.6 mph - N/A Rain Rain
6:36 AM 48.2 °F - 46.4 °F 93% 29.42 in 10.0 mi ENE 4.6 mph - N/A Rain Rain
6:55 AM 48.2 °F - 46.4 °F 93% 29.41 in 10.0 mi NE 5.8 mph - N/A Rain Rain
7:15 AM 46.4 °F 42.4 °F 46.4 °F 100% 29.38 in 10.0 mi NNE 8.1 mph - N/A Rain Light Rain
7:16 AM 46.4 °F 42.4 °F 46.4 °F 100% 29.38 in 10.0 mi NNE 8.1 mph - N/A Rain Light Rain
7:35 AM 46.4 °F 41.5 °F 44.6 °F 93% 29.37 in 10.0 mi NE 10.4 mph - N/A Rain Rain
7:55 AM 46.4 °F 40.4 °F 44.6 °F 93% 29.35 in 10.0 mi ENE 13.8 mph - N/A Rain Rain
7:56 AM 46.4 °F 40.4 °F 44.6 °F 93% 29.35 in 10.0 mi ENE 13.8 mph - N/A Rain Heavy Rain
8:15 AM 46.4 °F 41.5 °F 44.6 °F 93% 29.34 in 10.0 mi NE 10.4 mph - N/A Rain Rain
8:16 AM 46.4 °F 41.5 °F 44.6 °F 93% 29.34 in 10.0 mi NE 10.4 mph - N/A Rain Rain
8:35 AM 46.4 °F 42.9 °F 44.6 °F 93% 29.33 in 10.0 mi North 6.9 mph - N/A Rain Rain
8:36 AM 46.4 °F 43.5 °F 44.6 °F 93% 29.33 in 10.0 mi North 5.8 mph - N/A Rain Rain
8:55 AM 46.4 °F 42.4 °F 44.6 °F 93% 29.34 in 7.0 mi NW 8.1 mph - N/A Rain Heavy Rain
9:15 AM 46.4 °F 43.5 °F 44.6 °F 93% 29.33 in 10.0 mi North 5.8 mph - N/A Rain Rain
9:16 AM 46.4 °F 43.5 °F 44.6 °F 93% 29.33 in 10.0 mi North 5.8 mph - N/A Rain Rain
9:35 AM 46.4 °F 43.5 °F 44.6 °F 93% 29.31 in 10.0 mi North 5.8 mph - N/A Rain Rain
9:36 AM 46.4 °F 43.5 °F 44.6 °F 93% 29.31 in 10.0 mi North 5.8 mph - N/A Rain Rain
9:55 AM 46.4 °F 43.5 °F 44.6 °F 93% 29.30 in 10.0 mi North 5.8 mph - N/A Rain Rain
9:56 AM 46.4 °F 43.5 °F 44.6 °F 93% 29.29 in 10.0 mi North 5.8 mph - N/A Rain Rain
10:15 AM 46.4 °F 43.5 °F 44.6 °F 93% 29.28 in 10.0 mi North 5.8 mph - N/A Rain Rain
10:35 AM 46.4 °F 41.5 °F 44.6 °F 93% 29.24 in 10.0 mi NNE 10.4 mph - N/A Rain Light Rain
10:36 AM 46.4 °F 40.7 °F 44.6 °F 93% 29.24 in 10.0 mi NNE 12.7 mph 17.3 mph N/A Rain Light Rain
10:55 AM 46.4 °F 41.9 °F 44.6 °F 93% 29.23 in 10.0 mi NNW 9.2 mph - N/A Rain Light Rain
11:15 AM 46.4 °F 42.4 °F 46.4 °F 100% 29.21 in 7.0 mi NNW 8.1 mph - N/A Rain Rain
11:16 AM 46.4 °F 41.9 °F 46.4 °F 100% 29.21 in 7.0 mi NNW 9.2 mph - N/A Rain Rain
11:35 AM 46.4 °F 42.4 °F 46.4 °F 100% 29.19 in 10.0 mi North 8.1 mph - N/A   Overcast
11:55 AM 46.4 °F 42.9 °F 46.4 °F 100% 29.19 in 10.0 mi NNE 6.9 mph - N/A   Overcast
12:15 PM 46.4 °F 43.5 °F 46.4 °F 100% 29.20 in 10.0 mi ENE 5.8 mph - N/A   Overcast
12:35 PM 46.4 °F 41.9 °F 46.4 °F 100% 29.18 in 10.0 mi NE 9.2 mph - N/A   Overcast
12:36 PM 46.4 °F 41.9 °F 46.4 °F 100% 29.18 in 10.0 mi NE 9.2 mph - N/A   Overcast
12:55 PM 46.4 °F 42.4 °F 46.4 °F 100% 29.16 in 10.0 mi NE 8.1 mph - N/A Rain Light Rain
1:15 PM 46.4 °F 41.9 °F 44.6 °F 93% 29.16 in 5.0 mi NE 9.2 mph - N/A   Drizzle
1:35 PM 46.4 °F 42.4 °F 44.6 °F 93% 29.14 in 4.0 mi NNE 8.1 mph - N/A   Heavy Drizzle
1:36 PM 46.4 °F 42.9 °F 44.6 °F 93% 29.14 in 4.0 mi North 6.9 mph - N/A   Heavy Drizzle
1:55 PM 46.4 °F 42.9 °F 46.4 °F 100% 29.14 in 3.0 mi NNW 6.9 mph - N/A   Drizzle
2:15 PM 46.4 °F 42.9 °F 44.6 °F 93% 29.14 in 4.0 mi North 6.9 mph - N/A Rain Light Rain
2:16 PM 46.4 °F 43.5 °F 44.6 °F 93% 29.14 in 4.0 mi North 5.8 mph - N/A Rain Light Rain
2:35 PM 46.4 °F 41.9 °F 44.6 °F 93% 29.13 in 5.0 mi NNW 9.2 mph - N/A Rain Light Rain
2:55 PM 46.4 °F 41.5 °F 44.6 °F 93% 29.12 in 10.0 mi NW 10.4 mph - N/A   Light Drizzle
2:56 PM 46.4 °F 41.1 °F 44.6 °F 93% 29.12 in 10.0 mi NW 11.5 mph - N/A   Light Drizzle
3:15 PM 46.4 °F 41.5 °F 44.6 °F 93% 29.13 in 10.0 mi WNW 10.4 mph - N/A Rain Light Rain
3:35 PM 46.4 °F 41.9 °F 44.6 °F 93% 29.14 in 10.0 mi WNW 9.2 mph - N/A Rain Light Rain
3:55 PM 46.4 °F 41.9 °F 44.6 °F 93% 29.14 in 10.0 mi West 9.2 mph - N/A Rain Light Rain
4:15 PM 46.4 °F 42.4 °F 44.6 °F 93% 29.13 in 10.0 mi WNW 8.1 mph - N/A Rain Light Rain
4:35 PM 46.4 °F 40.7 °F 44.6 °F 93% 29.13 in 10.0 mi WNW 12.7 mph - N/A Rain Light Rain
4:55 PM 46.4 °F 40.1 °F 44.6 °F 93% 29.13 in 10.0 mi WNW 15.0 mph - N/A Rain Light Rain
4:56 PM 46.4 °F 40.7 °F 44.6 °F 93% 29.13 in 10.0 mi WNW 12.7 mph - N/A Rain Light Rain
5:15 PM 44.6 °F 36.9 °F 42.8 °F 93% 29.13 in 10.0 mi NW 18.4 mph 21.9 mph N/A   Drizzle
5:35 PM 44.6 °F 38.1 °F 42.8 °F 93% 29.13 in 7.0 mi WNW 13.8 mph 25.3 mph N/A Rain Light Rain
5:55 PM 44.6 °F 36.9 °F 42.8 °F 93% 29.13 in 10.0 mi WNW 18.4 mph 24.2 mph N/A Rain Light Rain
6:15 PM 42.8 °F 34.8 °F 42.8 °F 100% 29.14 in 10.0 mi WNW 17.3 mph 23.0 mph N/A Rain Light Rain
6:16 PM 42.8 °F 34.8 °F 42.8 °F 100% 29.14 in 10.0 mi WNW 17.3 mph 23.0 mph N/A Rain Light Rain
6:35 PM 42.8 °F 34.3 °F 41.0 °F 93% 29.14 in 10.0 mi NW 19.6 mph 26.5 mph N/A Rain Light Rain
6:55 PM 42.8 °F 33.1 °F 41.0 °F 93% 29.14 in 10.0 mi WNW 25.3 mph 28.8 mph N/A Rain Light Rain
6:56 PM 42.8 °F 33.3 °F 41.0 °F 93% 29.14 in 10.0 mi NW 24.2 mph 28.8 mph N/A Rain Light Rain
7:15 PM 42.8 °F 34.0 °F 41.0 °F 93% 29.15 in 10.0 mi WNW 20.7 mph 29.9 mph N/A Rain Light Rain
7:35 PM 42.8 °F 33.1 °F 41.0 °F 93% 29.15 in 10.0 mi NW 25.3 mph 32.2 mph N/A Rain Light Rain
7:55 PM 42.8 °F 32.7 °F 41.0 °F 93% 29.15 in 10.0 mi NW 27.6 mph 34.5 mph N/A Rain Light Rain
7:56 PM 42.8 °F 32.5 °F 41.0 °F 93% 29.16 in 10.0 mi NW 28.8 mph 34.5 mph N/A Rain Light Rain
8:15 PM 42.8 °F 33.5 °F 39.2 °F 87% 29.16 in 10.0 mi NW 23.0 mph 33.4 mph N/A Rain Light Rain
8:35 PM 42.8 °F 32.5 °F 39.2 °F 87% 29.17 in 10.0 mi NW 28.8 mph 36.8 mph N/A Rain Light Rain
8:55 PM 42.8 °F 31.9 °F 39.2 °F 87% 29.18 in 10.0 mi NW 32.2 mph 42.6 mph N/A Rain Light Rain
8:56 PM 42.8 °F 32.3 °F 39.2 °F 87% 29.18 in 10.0 mi NW 29.9 mph 42.6 mph N/A Rain Light Rain
9:15 PM 41.0 °F 29.3 °F 37.4 °F 87% 29.20 in 10.0 mi NNW 33.4 mph 51.8 mph N/A Rain Light Rain
9:35 PM 41.0 °F 30.5 °F 37.4 °F 87% 29.21 in 10.0 mi NNW 26.5 mph 44.9 mph N/A Rain Light Rain
9:55 PM 41.0 °F 30.2 °F 37.4 °F 87% 29.22 in 7.0 mi NNW 27.6 mph 54.1 mph N/A Rain Light Rain
10:15 PM 41.0 °F 29.1 °F 37.4 °F 87% 29.23 in 10.0 mi NNW 34.5 mph 41.4 mph N/A Rain Light Rain
10:35 PM 41.0 °F 30.0 °F 37.4 °F 87% 29.25 in 10.0 mi NNW 28.8 mph 48.3 mph N/A Rain Light Rain
10:55 PM 41.0 °F 29.8 °F 37.4 °F 87% 29.26 in 10.0 mi NNW 29.9 mph 41.4 mph N/A Rain Light Rain
10:56 PM 41.0 °F 30.9 °F 37.4 °F 87% 29.27 in 10.0 mi NNW 24.2 mph 41.4 mph N/A Rain Light Rain
11:15 PM 42.8 °F 33.3 °F 39.2 °F 87% 29.28 in 7.0 mi NW 24.2 mph 41.4 mph N/A Rain Light Rain
11:16 PM 42.8 °F 33.1 °F 39.2 °F 87% 29.28 in 10.0 mi NW 25.3 mph 35.7 mph N/A Rain Light Rain
11:35 PM 42.8 °F 33.1 °F 39.2 °F 87% 29.29 in 10.0 mi NW 25.3 mph 35.7 mph N/A   Drizzle
11:36 PM 42.8 °F 33.3 °F 39.2 °F 87% 29.29 in 10.0 mi NW 24.2 mph 34.5 mph N/A   Drizzle